Time,TemperatureF,DewpointF,PressureIn,WindDirection,WindDirectionDegrees,WindSpeedMPH,WindSpeedGustMPH,Humidity,HourlyPrecipIn,Conditions,Clouds,dailyrainin,SoftwareType,DateUTC
2013-04-01 00:02:00,44.0,41.0,-100.00,WSW,242,2.0,5.0,90,-99.99,,,-99.99,,2013-04-01 07:02:00,
2013-04-01 00:12:00,44.0,41.0,-100.00,West,265,3.0,5.0,90,-99.99,,,-99.99,,2013-04-01 07:12:00,
2013-04-01 00:22:00,44.0,41.0,-100.00,West,265,2.0,4.0,90,-99.99,,,-99.99,,2013-04-01 07:22:00,
2013-04-01 00:32:00,44.0,42.0,-100.00,West,272,1.0,2.0,91,-99.99,,,-99.99,,2013-04-01 07:32:00,
2013-04-01 00:42:00,44.0,42.0,-100.00,WNW,297,5.0,9.0,93,-99.99,,,-99.99,,2013-04-01 07:42:00,
2013-04-01 00:52:00,44.0,42.0,-100.00,WNW,287,6.0,10.0,94,-99.99,,,-99.99,,2013-04-01 07:52:00,
2013-04-01 01:02:00,44.0,42.0,-100.00,WNW,286,5.0,9.0,93,-99.99,,,-99.99,,2013-04-01 08:02:00,
2013-04-01 01:12:00,44.0,42.0,-100.00,WNW,291,4.0,6.0,93,-99.99,,,-99.99,,2013-04-01 08:12:00,
2013-04-01 01:22:00,44.0,42.0,-100.00,NW,323,5.0,8.0,93,-99.99,,,-99.99,,2013-04-01 08:22:00,
2013-04-01 01:32:00,43.0,41.0,-100.00,NW,317,3.0,6.0,93,-99.99,,,-99.99,,2013-04-01 08:32:00,
2013-04-01 01:43:00,43.0,41.0,-100.00,NNW,329,4.0,7.0,93,-99.99,,,-99.99,,2013-04-01 08:43:00,
2013-04-01 01:52:00,43.0,41.0,-100.00,NW,322,4.0,7.0,93,-99.99,,,-99.99,,2013-04-01 08:52:00,
2013-04-01 02:02:00,42.0,40.0,-100.00,NW,313,4.0,6.0,94,-99.99,,,-99.99,,2013-04-01 09:02:00,
2013-04-01 02:12:00,42.0,40.0,-100.00,NNW,331,3.0,5.0,94,-99.99,,,-99.99,,2013-04-01 09:12:00,
2013-04-01 02:22:00,42.0,40.0,-100.00,NNW,328,5.0,8.0,94,-99.99,,,-99.99,,2013-04-01 09:22:00,
2013-04-01 02:33:00,42.0,40.0,-100.00,NW,317,4.0,7.0,94,-99.99,,,-99.99,,2013-04-01 09:33:00,
2013-04-01 02:42:00,42.0,40.0,-100.00,NNW,335,4.0,5.0,94,-99.99,,,-99.99,,2013-04-01 09:42:00,
2013-04-01 02:52:00,42.0,41.0,-100.00,NNW,339,3.0,6.0,95,-99.99,,,-99.99,,2013-04-01 09:52:00,
2013-04-01 03:02:00,41.0,40.0,-100.00,NNW,333,2.0,3.0,95,-99.99,,,-99.99,,2013-04-01 10:02:00,
2013-04-01 03:12:00,41.0,40.0,-100.00,North,352,2.0,3.0,96,-99.99,,,-99.99,,2013-04-01 10:12:00,
2013-04-01 03:22:00,41.0,40.0,-100.00,NNW,344,3.0,4.0,96,-99.99,,,-99.99,,2013-04-01 10:22:00,
2013-04-01 03:33:00,40.0,39.0,-100.00,NNW,335,2.0,3.0,96,-99.99,,,-99.99,,2013-04-01 10:33:00,
2013-04-01 03:42:00,40.0,39.0,-100.00,North,356,2.0,4.0,96,-99.99,,,-99.99,,2013-04-01 10:42:00,
2013-04-01 03:52:00,40.0,39.0,-100.00,North,2,4.0,4.0,96,-99.99,,,-99.99,,2013-04-01 10:52:00,
2013-04-01 04:02:00,40.0,39.0,-100.00,North,10,4.0,5.0,95,-99.99,,,-99.99,,2013-04-01 11:02:00,
2013-04-01 04:12:00,40.0,39.0,-100.00,North,2,4.0,5.0,95,-99.99,,,-99.99,,2013-04-01 11:12:00,
2013-04-01 04:22:00,39.0,38.0,-100.00,NNW,335,2.0,3.0,95,-99.99,,,-99.99,,2013-04-01 11:22:00,
2013-04-01 04:32:00,39.0,38.0,-100.00,NNW,332,3.0,4.0,96,-99.99,,,-99.99,,2013-04-01 11:32:00,
2013-04-01 04:42:00,39.0,38.0,-100.00,NNW,331,3.0,4.0,97,-99.99,,,-99.99,,2013-04-01 11:42:00,
2013-04-01 04:52:00,39.0,38.0,-100.00,NW,316,2.0,3.0,97,-99.99,,,-99.99,,2013-04-01 11:52:00,
2013-04-01 05:02:00,39.0,38.0,-100.00,West,281,1.0,1.0,97,-99.99,,,-99.99,,2013-04-01 12:02:00,
2013-04-01 05:12:00,39.0,38.0,-100.00,WNW,294,3.0,6.0,97,-99.99,,,-99.99,,2013-04-01 12:12:00,
2013-04-01 05:22:00,40.0,39.0,-100.00,NW,312,4.0,5.0,97,-99.99,,,-99.99,,2013-04-01 12:22:00,
2013-04-01 05:32:00,39.0,38.0,-100.00,NNW,329,2.0,4.0,97,-99.99,,,-99.99,,2013-04-01 12:32:00,
2013-04-01 05:42:00,39.0,38.0,-100.00,NW,323,3.0,4.0,97,-99.99,,,-99.99,,2013-04-01 12:42:00,
2013-04-01 05:52:00,40.0,39.0,-100.00,NNW,336,4.0,8.0,97,-99.99,,,-99.99,,2013-04-01 12:52:00,
2013-04-01 06:02:00,40.0,39.0,-100.00,NNW,344,4.0,7.0,97,-99.99,,,-99.99,,2013-04-01 13:02:00,
2013-04-01 06:12:00,40.0,39.0,-100.00,NNW,347,5.0,8.0,97,-99.99,,,-99.99,,2013-04-01 13:12:00,
2013-04-01 06:22:00,40.0,39.0,-100.00,NNW,327,3.0,5.0,97,-99.99,,,-99.99,,2013-04-01 13:22:00,
2013-04-01 06:32:00,40.0,39.0,-100.00,NNW,347,4.0,5.0,97,-99.99,,,-99.99,,2013-04-01 13:32:00,
2013-04-01 06:42:00,40.0,39.0,-100.00,NNW,347,5.0,8.0,97,-99.99,,,-99.99,,2013-04-01 13:42:00,
2013-04-01 06:52:00,40.0,39.0,-100.00,NNW,344,5.0,7.0,97,-99.99,,,-99.99,,2013-04-01 13:52:00,
2013-04-01 07:02:00,39.0,38.0,-100.00,NNW,332,4.0,8.0,97,-99.99,,,-99.99,,2013-04-01 14:02:00,
2013-04-01 07:12:00,39.0,38.0,-100.00,NNW,340,5.0,10.0,96,-99.99,,,-99.99,,2013-04-01 14:12:00,
2013-04-01 07:22:00,40.0,39.0,-100.00,NNW,342,5.0,8.0,96,-99.99,,,-99.99,,2013-04-01 14:22:00,
2013-04-01 07:32:00,40.0,39.0,-100.00,North,349,6.0,8.0,96,-99.99,,,-99.99,,2013-04-01 14:32:00,
2013-04-01 07:42:00,41.0,40.0,-100.00,NNW,341,7.0,11.0,95,-99.99,,,-99.99,,2013-04-01 14:42:00,
2013-04-01 07:52:00,41.0,40.0,-100.00,NNW,345,6.0,9.0,95,-99.99,,,-99.99,,2013-04-01 14:52:00,
2013-04-01 08:02:00,41.0,40.0,-100.00,NNW,335,5.0,8.0,95,-99.99,,,-99.99,,2013-04-01 15:02:00,
2013-04-01 08:12:00,42.0,40.0,-100.00,NNW,337,5.0,8.0,93,-99.99,,,-99.99,,2013-04-01 15:12:00,
2013-04-01 08:22:00,42.0,40.0,-100.00,NNW,332,6.0,9.0,91,-99.99,,,-99.99,,2013-04-01 15:22:00,
2013-04-01 08:33:00,43.0,40.0,-100.00,NW,320,6.0,11.0,88,-99.99,,,-99.99,,2013-04-01 15:33:00,
2013-04-01 08:43:00,43.0,39.0,-100.00,NW,320,8.0,13.0,87,-99.99,,,-99.99,,2013-04-01 15:43:00,
2013-04-01 08:50:00,44.0,39.0,-100.00,NW,315,7.0,12.0,84,-99.99,,,-99.99,,2013-04-01 15:50:00,
2013-04-01 08:53:00,43.0,39.0,-100.00,NW,318,7.0,11.0,85,-99.99,,,-99.99,,2013-04-01 15:53:00,
2013-04-01 09:02:00,44.0,39.0,-100.00,NW,307,7.0,12.0,84,-99.99,,,-99.99,,2013-04-01 16:02:00,
2013-04-01 09:12:00,43.0,38.0,-100.00,NW,315,7.0,12.0,84,-99.99,,,-99.99,,2013-04-01 16:12:00,
2013-04-01 09:22:00,44.0,39.0,-100.00,NW,315,7.0,12.0,84,-99.99,,,-99.99,,2013-04-01 16:22:00,
2013-04-01 09:32:00,44.0,39.0,-100.00,NW,315,7.0,12.0,84,-99.99,,,-99.99,,2013-04-01 16:32:00,
2013-04-01 09:42:00,44.0,39.0,-100.00,NW,315,7.0,12.0,84,-99.99,,,-99.99,,2013-04-01 16:42:00,
2013-04-01 10:32:00,48.0,36.0,-100.00,NNW,328,9.0,17.0,62,-99.99,,,-99.99,,2013-04-01 17:32:00,
2013-04-01 10:42:00,48.0,36.0,-100.00,NW,319,9.0,16.0,63,-99.99,,,-99.99,,2013-04-01 17:42:00,
2013-04-01 10:52:00,49.0,37.0,-100.00,NW,325,9.0,15.0,62,-99.99,,,-99.99,,2013-04-01 17:52:00,
2013-04-01 11:02:00,50.0,36.0,-100.00,NNW,341,9.0,16.0,58,-99.99,,,-99.99,,2013-04-01 18:02:00,
2013-04-01 11:11:00,50.0,35.0,-100.00,NNW,327,9.0,16.0,57,-99.99,,,-99.99,,2013-04-01 18:11:00,
2013-04-01 11:22:00,50.0,35.0,-100.00,NW,324,11.0,17.0,56,-99.99,,,-99.99,,2013-04-01 18:22:00,
2013-04-01 11:32:00,51.0,35.0,-100.00,NW,324,10.0,16.0,55,-99.99,,,-99.99,,2013-04-01 18:32:00,
2013-04-01 11:42:00,51.0,35.0,-100.00,NW,320,12.0,20.0,54,-99.99,,,-99.99,,2013-04-01 18:42:00,
2013-04-01 11:52:00,51.0,34.0,-100.00,NW,323,13.0,20.0,52,-99.99,,,-99.99,,2013-04-01 18:52:00,
2013-04-01 12:03:00,51.0,34.0,-100.00,NW,304,13.0,19.0,52,-99.99,,,-99.99,,2013-04-01 19:03:00,
2013-04-01 12:12:00,52.0,34.0,-100.00,NW,310,13.0,23.0,51,-99.99,,,-99.99,,2013-04-01 19:12:00,
2013-04-01 12:22:00,52.0,35.0,-100.00,NW,306,13.0,19.0,53,-99.99,,,-99.99,,2013-04-01 19:22:00,
2013-04-01 12:32:00,53.0,36.0,-100.00,WNW,298,13.0,25.0,52,-99.99,,,-99.99,,2013-04-01 19:32:00,
2013-04-01 12:42:00,52.0,36.0,-100.00,WNW,294,16.0,24.0,54,-99.99,,,-99.99,,2013-04-01 19:42:00,
2013-04-01 12:52:00,53.0,36.0,-100.00,WNW,292,14.0,23.0,53,-99.99,,,-99.99,,2013-04-01 19:52:00,
2013-04-01 13:02:00,52.0,36.0,-100.00,WNW,292,17.0,26.0,54,-99.99,,,-99.99,,2013-04-01 20:02:00,
2013-04-01 13:12:00,52.0,36.0,-100.00,WNW,303,17.0,27.0,55,-99.99,,,-99.99,,2013-04-01 20:12:00,
2013-04-01 13:22:00,53.0,37.0,-100.00,WNW,298,16.0,28.0,55,-99.99,,,-99.99,,2013-04-01 20:22:00,
2013-04-01 13:32:00,52.0,37.0,-100.00,WNW,296,18.0,28.0,56,-99.99,,,-99.99,,2013-04-01 20:32:00,
2013-04-01 13:42:00,53.0,36.0,-100.00,NW,308,13.0,21.0,53,-99.99,,,-99.99,,2013-04-01 20:42:00,
2013-04-01 13:51:00,52.0,35.0,-100.00,NW,310,16.0,25.0,52,-99.99,,,-99.99,,2013-04-01 20:51:00,
2013-04-01 14:02:00,52.0,35.0,-100.00,NW,304,16.0,25.0,52,-99.99,,,-99.99,,2013-04-01 21:02:00,
2013-04-01 14:11:00,52.0,36.0,-100.00,WNW,297,16.0,24.0,55,-99.99,,,-99.99,,2013-04-01 21:11:00,
2013-04-01 14:22:00,53.0,37.0,-100.00,NW,304,15.0,23.0,54,-99.99,,,-99.99,,2013-04-01 21:22:00,
2013-04-01 14:32:00,53.0,36.0,-100.00,WNW,299,16.0,27.0,53,-99.99,,,-99.99,,2013-04-01 21:32:00,
2013-04-01 14:43:00,54.0,38.0,-100.00,NW,307,14.0,26.0,54,-99.99,,,-99.99,,2013-04-01 21:43:00,
2013-04-01 14:52:00,54.0,38.0,-100.00,NW,304,15.0,24.0,55,-99.99,,,-99.99,,2013-04-01 21:52:00,
2013-04-01 15:02:00,54.0,37.0,-100.00,NW,319,15.0,25.0,53,-99.99,,,-99.99,,2013-04-01 22:02:00,
2013-04-01 15:12:00,55.0,39.0,-100.00,NW,315,13.0,22.0,55,-99.99,,,-99.99,,2013-04-01 22:12:00,
2013-04-01 15:22:00,54.0,40.0,-100.00,WNW,303,16.0,23.0,60,-99.99,,,-99.99,,2013-04-01 22:22:00,
2013-04-01 15:33:00,53.0,41.0,-100.00,WNW,299,14.0,25.0,63,-99.99,,,-99.99,,2013-04-01 22:33:00,
2013-04-01 15:42:00,54.0,41.0,-100.00,WNW,287,17.0,24.0,62,-99.99,,,-99.99,,2013-04-01 22:42:00,
2013-04-01 15:52:00,52.0,41.0,-100.00,WNW,296,17.0,26.0,67,-99.99,,,-99.99,,2013-04-01 22:52:00,
2013-04-01 16:02:00,52.0,43.0,-100.00,WNW,288,16.0,22.0,71,-99.99,,,-99.99,,2013-04-01 23:02:00,
2013-04-01 16:12:00,51.0,42.0,-100.00,WNW,286,16.0,23.0,72,-99.99,,,-99.99,,2013-04-01 23:12:00,
2013-04-01 16:22:00,51.0,42.0,-100.00,WNW,289,14.0,21.0,72,-99.99,,,-99.99,,2013-04-01 23:22:00,
2013-04-01 16:32:00,51.0,43.0,-100.00,WNW,293,12.0,22.0,74,-99.99,,,-99.99,,2013-04-01 23:32:00,
2013-04-01 16:42:00,51.0,42.0,-100.00,WNW,295,15.0,23.0,71,-99.99,,,-99.99,,2013-04-01 23:42:00,
2013-04-01 16:52:00,50.0,41.0,-100.00,WNW,301,14.0,21.0,72,-99.99,,,-99.99,,2013-04-01 23:52:00,
2013-04-01 17:02:00,50.0,41.0,-100.00,WNW,291,14.0,23.0,71,-99.99,,,-99.99,,2013-04-02 00:02:00,
2013-04-01 17:11:00,50.0,41.0,-100.00,WNW,296,13.0,22.0,72,-99.99,,,-99.99,,2013-04-02 00:11:00,
2013-04-01 17:22:00,50.0,42.0,-100.00,WNW,294,13.0,22.0,73,-99.99,,,-99.99,,2013-04-02 00:22:00,
2013-04-01 17:32:00,49.0,41.0,-100.00,WNW,292,13.0,20.0,75,-99.99,,,-99.99,,2013-04-02 00:32:00,
2013-04-01 17:42:00,49.0,42.0,-100.00,WNW,301,12.0,19.0,76,-99.99,,,-99.99,,2013-04-02 00:42:00,
2013-04-01 17:52:00,48.0,41.0,-100.00,WNW,296,13.0,20.0,78,-99.99,,,-99.99,,2013-04-02 00:52:00,
2013-04-01 18:01:00,48.0,42.0,-100.00,WNW,294,13.0,24.0,79,-99.99,,,-99.99,,2013-04-02 01:01:00,
2013-04-01 18:11:00,48.0,42.0,-100.00,WNW,292,12.0,18.0,81,-99.99,,,-99.99,,2013-04-02 01:11:00,
2013-04-01 18:22:00,47.0,42.0,-100.00,WNW,300,14.0,19.0,83,-99.99,,,-99.99,,2013-04-02 01:22:00,
2013-04-01 18:32:00,47.0,42.0,-100.00,WNW,295,13.0,18.0,84,-99.99,,,-99.99,,2013-04-02 01:32:00,
2013-04-01 18:42:00,46.0,42.0,-100.00,WNW,296,14.0,20.0,85,-99.99,,,-99.99,,2013-04-02 01:42:00,
2013-04-01 18:52:00,46.0,42.0,-100.00,WNW,295,13.0,22.0,86,-99.99,,,-99.99,,2013-04-02 01:52:00,
2013-04-01 19:02:00,46.0,42.0,-100.00,WNW,297,12.0,19.0,87,-99.99,,,-99.99,,2013-04-02 02:02:00,
2013-04-01 19:12:00,45.0,42.0,-100.00,WNW,297,12.0,19.0,88,-99.99,,,-99.99,,2013-04-02 02:12:00,
2013-04-01 19:21:00,45.0,42.0,-100.00,WNW,299,12.0,18.0,89,-99.99,,,-99.99,,2013-04-02 02:21:00,
2013-04-01 19:32:00,45.0,43.0,-100.00,WNW,298,12.0,19.0,91,-99.99,,,-99.99,,2013-04-02 02:32:00,
2013-04-01 19:42:00,44.0,42.0,-100.00,WNW,301,11.0,17.0,91,-99.99,,,-99.99,,2013-04-02 02:42:00,
2013-04-01 19:52:00,44.0,42.0,-100.00,WNW,300,11.0,18.0,92,-99.99,,,-99.99,,2013-04-02 02:52:00,
2013-04-01 20:02:00,44.0,42.0,-100.00,WNW,300,10.0,18.0,91,-99.99,,,-99.99,,2013-04-02 03:02:00,
2013-04-01 20:12:00,44.0,42.0,-100.00,WNW,295,11.0,18.0,91,-99.99,,,-99.99,,2013-04-02 03:12:00,
2013-04-01 20:22:00,44.0,42.0,-100.00,NW,308,10.0,16.0,92,-99.99,,,-99.99,,2013-04-02 03:22:00,
2013-04-01 20:33:00,44.0,42.0,-100.00,NW,314,10.0,17.0,91,-99.99,,,-99.99,,2013-04-02 03:33:00,
2013-04-01 20:43:00,44.0,42.0,-100.00,NW,318,9.0,17.0,91,-99.99,,,-99.99,,2013-04-02 03:43:00,
2013-04-01 20:52:00,44.0,42.0,-100.00,NW,309,8.0,12.0,91,-99.99,,,-99.99,,2013-04-02 03:52:00,
2013-04-01 21:02:00,44.0,41.0,-100.00,NW,320,8.0,14.0,90,-99.99,,,-99.99,,2013-04-02 04:02:00,
2013-04-01 21:12:00,44.0,41.0,-100.00,NNW,332,11.0,18.0,89,-99.99,,,-99.99,,2013-04-02 04:12:00,
2013-04-01 21:22:00,44.0,41.0,-100.00,NW,325,9.0,15.0,89,-99.99,,,-99.99,,2013-04-02 04:22:00,
2013-04-01 21:32:00,44.0,41.0,-100.00,NNW,331,9.0,15.0,89,-99.99,,,-99.99,,2013-04-02 04:32:00,
2013-04-01 21:42:00,44.0,41.0,-100.00,NNW,327,10.0,16.0,89,-99.99,,,-99.99,,2013-04-02 04:42:00,
2013-04-01 21:52:00,44.0,41.0,-100.00,NW,326,12.0,20.0,89,-99.99,,,-99.99,,2013-04-02 04:52:00,
2013-04-01 22:02:00,44.0,41.0,-100.00,NNW,328,9.0,18.0,89,-99.99,,,-99.99,,2013-04-02 05:02:00,
2013-04-01 22:12:00,44.0,41.0,-100.00,NNW,331,10.0,18.0,88,-99.99,,,-99.99,,2013-04-02 05:12:00,
2013-04-01 22:22:00,44.0,40.0,-100.00,NW,324,10.0,17.0,87,-99.99,,,-99.99,,2013-04-02 05:22:00,
2013-04-01 22:32:00,43.0,40.0,-100.00,NNW,330,11.0,18.0,89,-99.99,,,-99.99,,2013-04-02 05:32:00,
2013-04-01 22:42:00,43.0,40.0,-100.00,NW,320,11.0,18.0,88,-99.99,,,-99.99,,2013-04-02 05:42:00,
2013-04-01 22:52:00,43.0,39.0,-100.00,NNW,329,10.0,16.0,87,-99.99,,,-99.99,,2013-04-02 05:52:00,
2013-04-01 23:02:00,43.0,39.0,-100.00,NNW,329,11.0,17.0,87,-99.99,,,-99.99,,2013-04-02 06:02:00,
2013-04-01 23:12:00,43.0,40.0,-100.00,NW,325,8.0,14.0,89,-99.99,,,-99.99,,2013-04-02 06:12:00,
2013-04-01 23:22:00,43.0,40.0,-100.00,NNW,329,11.0,20.0,89,-99.99,,,-99.99,,2013-04-02 06:22:00,
2013-04-01 23:32:00,43.0,40.0,-100.00,NNW,327,11.0,17.0,88,-99.99,,,-99.99,,2013-04-02 06:32:00,
2013-04-01 23:42:00,43.0,40.0,-100.00,NNW,331,10.0,16.0,89,-99.99,,,-99.99,,2013-04-02 06:42:00,
2013-04-01 23:52:00,43.0,40.0,-100.00,NW,322,10.0,18.0,90,-99.99,,,-99.99,,2013-04-02 06:52:00,